sensor_id;sensor_type;location;lat;lon;timestamp;pressure;altitude;pressure_sealevel;temperature
75428;BMP280;64008;55.612;37.698;2023-04-19T00:01:14;100561.28;;;21.99
75428;BMP280;64008;55.612;37.698;2023-04-19T00:03:40;100562.78;;;22.05
75428;BMP280;64008;55.612;37.698;2023-04-19T00:06:05;100556.09;;;22.02
75428;BMP280;64008;55.612;37.698;2023-04-19T00:08:33;100557.06;;;22.12
75428;BMP280;64008;55.612;37.698;2023-04-19T00:10:58;100559.28;;;22.04
75428;BMP280;64008;55.612;37.698;2023-04-19T00:13:24;100558.56;;;21.99
75428;BMP280;64008;55.612;37.698;2023-04-19T00:15:49;100561.53;;;22.21
75428;BMP280;64008;55.612;37.698;2023-04-19T00:18:15;100562.19;;;22.08
75428;BMP280;64008;55.612;37.698;2023-04-19T00:20:40;100560.97;;;22.00
75428;BMP280;64008;55.612;37.698;2023-04-19T00:23:06;100570.50;;;22.12
75428;BMP280;64008;55.612;37.698;2023-04-19T00:25:31;100558.78;;;22.02
75428;BMP280;64008;55.612;37.698;2023-04-19T00:27:58;100558.56;;;21.99
75428;BMP280;64008;55.612;37.698;2023-04-19T00:30:24;100564.03;;;21.89
75428;BMP280;64008;55.612;37.698;2023-04-19T00:32:50;100562.91;;;21.95
75428;BMP280;64008;55.612;37.698;2023-04-19T00:35:16;100564.03;;;21.89
75428;BMP280;64008;55.612;37.698;2023-04-19T00:37:41;100559.50;;;21.84
75428;BMP280;64008;55.612;37.698;2023-04-19T00:40:07;100571.31;;;21.88
75428;BMP280;64008;55.612;37.698;2023-04-19T00:42:33;100566.50;;;21.85
75428;BMP280;64008;55.612;37.698;2023-04-19T00:44:58;100574.69;;;21.75
75428;BMP280;64008;55.612;37.698;2023-04-19T00:47:24;100578.34;;;21.84
75428;BMP280;64008;55.612;37.698;2023-04-19T00:49:49;100564.88;;;21.89
75428;BMP280;64008;55.612;37.698;2023-04-19T00:52:15;100567.72;;;21.98
75428;BMP280;64008;55.612;37.698;2023-04-19T00:54:41;100574.44;;;21.95
75428;BMP280;64008;55.612;37.698;2023-04-19T00:57:07;100566.09;;;21.97
75428;BMP280;64008;55.612;37.698;2023-04-19T00:59:34;100569.03;;;22.00
75428;BMP280;64008;55.612;37.698;2023-04-19T01:01:59;100573.91;;;21.98
75428;BMP280;64008;55.612;37.698;2023-04-19T01:04:25;100577.22;;;21.90
75428;BMP280;64008;55.612;37.698;2023-04-19T01:06:51;100582.94;;;21.83
75428;BMP280;64008;55.612;37.698;2023-04-19T01:09:16;100579.28;;;21.74
75428;BMP280;64008;55.612;37.698;2023-04-19T01:11:42;100587.28;;;21.79
75428;BMP280;64008;55.612;37.698;2023-04-19T01:14:07;100577.81;;;21.87
75428;BMP280;64008;55.612;37.698;2023-04-19T01:16:33;100577.22;;;21.90
75428;BMP280;64008;55.612;37.698;2023-04-19T01:19:00;100580.13;;;21.94
75428;BMP280;64008;55.612;37.698;2023-04-19T01:21:26;100582.03;;;21.93
75428;BMP280;64008;55.612;37.698;2023-04-19T01:23:53;100583.72;;;21.89
75428;BMP280;64008;55.612;37.698;2023-04-19T01:26:19;100583.47;;;21.85
75428;BMP280;64008;55.612;37.698;2023-04-19T01:28:45;100580.50;;;21.87
75428;BMP280;64008;55.612;37.698;2023-04-19T01:31:10;100585.34;;;21.85
75428;BMP280;64008;55.612;37.698;2023-04-19T01:33:36;100587.81;;;21.81
75428;BMP280;64008;55.612;37.698;2023-04-19T01:36:01;100582.44;;;21.81
75428;BMP280;64008;55.612;37.698;2023-04-19T01:38:27;100583.81;;;21.79
75428;BMP280;64008;55.612;37.698;2023-04-19T01:40:52;100583.50;;;21.80
75428;BMP280;64008;55.612;37.698;2023-04-19T01:43:20;100579.81;;;21.71
75428;BMP280;64008;55.612;37.698;2023-04-19T01:45:46;100580.06;;;21.75
75428;BMP280;64008;55.612;37.698;2023-04-19T01:48:11;100578.13;;;21.80
75428;BMP280;64008;55.612;37.698;2023-04-19T01:50:37;100569.56;;;21.78
75428;BMP280;64008;55.612;37.698;2023-04-19T01:53:02;100574.41;;;21.76
75428;BMP280;64008;55.612;37.698;2023-04-19T01:55:28;100567.09;;;21.82
75428;BMP280;64008;55.612;37.698;2023-04-19T01:57:53;100580.66;;;21.72
75428;BMP280;64008;55.612;37.698;2023-04-19T02:00:19;100587.66;;;21.68
75428;BMP280;64008;55.612;37.698;2023-04-19T02:02:45;100577.22;;;21.66
75428;BMP280;64008;55.612;37.698;2023-04-19T02:05:11;100571.84;;;21.66
75428;BMP280;64008;55.612;37.698;2023-04-19T02:07:36;100578.88;;;21.62
75428;BMP280;64008;55.612;37.698;2023-04-19T02:10:03;100567.94;;;22.01
75428;BMP280;64008;55.612;37.698;2023-04-19T02:12:30;100570.19;;;21.94
75428;BMP280;64008;55.612;37.698;2023-04-19T02:14:56;100571.38;;;21.83
75428;BMP280;64008;55.612;37.698;2023-04-19T02:17:25;100575.25;;;21.72
75428;BMP280;64008;55.612;37.698;2023-04-19T02:19:51;100578.97;;;21.76
75428;BMP280;64008;55.612;37.698;2023-04-19T02:22:17;100578.31;;;21.65
75428;BMP280;64008;55.612;37.698;2023-04-19T02:24:43;100576.25;;;21.57
75428;BMP280;64008;55.612;37.698;2023-04-19T02:27:08;100581.56;;;21.62
75428;BMP280;64008;55.612;37.698;2023-04-19T02:29:34;100586.75;;;21.53
75428;BMP280;64008;55.612;37.698;2023-04-19T02:31:59;100583.81;;;21.50
75428;BMP280;64008;55.612;37.698;2023-04-19T02:34:26;100580.81;;;21.80
75428;BMP280;64008;55.612;37.698;2023-04-19T02:36:52;100586.78;;;21.77
75428;BMP280;64008;55.612;37.698;2023-04-19T02:39:17;100577.06;;;21.81
75428;BMP280;64008;55.612;37.698;2023-04-19T02:41:43;100582.50;;;21.71
75428;BMP280;64008;55.612;37.698;2023-04-19T02:44:08;100578.81;;;21.67
75428;BMP280;64008;55.612;37.698;2023-04-19T02:46:34;100584.19;;;21.67
75428;BMP280;64008;55.612;37.698;2023-04-19T02:49:00;100584.34;;;21.76
75428;BMP280;64008;55.612;37.698;2023-04-19T02:51:25;100586.81;;;21.72
75428;BMP280;64008;55.612;37.698;2023-04-19T02:53:51;100589.88;;;21.66
75428;BMP280;64008;55.612;37.698;2023-04-19T02:56:17;100594.47;;;21.60
75428;BMP280;64008;55.612;37.698;2023-04-19T02:58:43;100590.75;;;21.56
75428;BMP280;64008;55.612;37.698;2023-04-19T03:01:09;100592.06;;;21.58
75428;BMP280;64008;55.612;37.698;2023-04-19T03:03:34;100588.28;;;21.59
75428;BMP280;64008;55.612;37.698;2023-04-19T03:06:00;100586.16;;;21.56
75428;BMP280;64008;55.612;37.698;2023-04-19T03:08:25;100585.59;;;21.59
75428;BMP280;64008;55.612;37.698;2023-04-19T03:10:51;100588.28;;;21.59
75428;BMP280;64008;55.612;37.698;2023-04-19T03:13:16;100589.69;;;21.57
75428;BMP280;64008;55.612;37.698;2023-04-19T03:15:42;100591.91;;;21.50
75428;BMP280;64008;55.612;37.698;2023-04-19T03:18:07;100588.06;;;21.56
75428;BMP280;64008;55.612;37.698;2023-04-19T03:20:33;100586.16;;;21.56
75428;BMP280;64008;55.612;37.698;2023-04-19T03:22:58;100590.25;;;21.54
75428;BMP280;64008;55.612;37.698;2023-04-19T03:25:24;100594.44;;;21.65
75428;BMP280;64008;55.612;37.698;2023-04-19T03:27:50;100600.06;;;21.69
75428;BMP280;64008;55.612;37.698;2023-04-19T03:30:16;100597.94;;;21.66
75428;BMP280;64008;55.612;37.698;2023-04-19T03:32:42;100594.44;;;21.65
75428;BMP280;64008;55.612;37.698;2023-04-19T03:35:08;100597.47;;;21.82
75428;BMP280;64008;55.612;37.698;2023-04-19T03:37:34;100599.00;;;21.65
75428;BMP280;64008;55.612;37.698;2023-04-19T03:40:00;100601.47;;;21.61
75428;BMP280;64008;55.612;37.698;2023-04-19T03:42:25;100606.03;;;21.60
75428;BMP280;64008;55.612;37.698;2023-04-19T03:44:51;100601.72;;;21.59
75428;BMP280;64008;55.612;37.698;2023-04-19T03:47:16;100601.72;;;21.59
75428;BMP280;64008;55.612;37.698;2023-04-19T03:49:42;100598.25;;;21.59
75428;BMP280;64008;55.612;37.698;2023-04-19T03:52:07;100598.81;;;21.56
75428;BMP280;64008;55.612;37.698;2023-04-19T03:54:33;100605.00;;;21.56
75428;BMP280;64008;55.612;37.698;2023-04-19T03:56:58;100610.91;;;21.58
75428;BMP280;64008;55.612;37.698;2023-04-19T03:59:24;100605.53;;;21.58
75428;BMP280;64008;55.612;37.698;2023-04-19T04:01:50;100605.78;;;21.62
75428;BMP280;64008;55.612;37.698;2023-04-19T04:04:16;100606.28;;;21.64
75428;BMP280;64008;55.612;37.698;2023-04-19T04:06:41;100608.91;;;21.69
75428;BMP280;64008;55.612;37.698;2023-04-19T04:09:07;100615.41;;;21.63
75428;BMP280;64008;55.612;37.698;2023-04-19T04:11:32;100608.56;;;21.76
75428;BMP280;64008;55.612;37.698;2023-04-19T04:13:58;100610.38;;;21.85
75428;BMP280;64008;55.612;37.698;2023-04-19T04:16:23;100611.81;;;22.02
75428;BMP280;64008;55.612;37.698;2023-04-19T04:18:49;100611.69;;;22.55
75428;BMP280;64008;55.612;37.698;2023-04-19T04:21:14;100598.59;;;22.67
75428;BMP280;64008;55.612;37.698;2023-04-19T04:23:40;100608.38;;;22.20
75428;BMP280;64008;55.612;37.698;2023-04-19T04:26:06;100611.41;;;21.90
75428;BMP280;64008;55.612;37.698;2023-04-19T04:28:34;100615.84;;;21.75
75428;BMP280;64008;55.612;37.698;2023-04-19T04:31:00;100613.72;;;21.72
75428;BMP280;64008;55.612;37.698;2023-04-19T04:33:27;100613.50;;;21.69
75428;BMP280;64008;55.612;37.698;2023-04-19T04:35:53;100617.47;;;21.76
75428;BMP280;64008;55.612;37.698;2023-04-19T04:38:19;100614.78;;;21.71
75428;BMP280;64008;55.612;37.698;2023-04-19T04:40:49;100612.59;;;21.78
75428;BMP280;64008;55.612;37.698;2023-04-19T04:43:15;100621.47;;;21.79
75428;BMP280;64008;55.612;37.698;2023-04-19T04:45:41;100618.53;;;21.75
75428;BMP280;64008;55.612;37.698;2023-04-19T04:48:08;100619.06;;;21.77
75428;BMP280;64008;55.612;37.698;2023-04-19T04:50:34;100610.19;;;22.01
75428;BMP280;64008;55.612;37.698;2023-04-19T04:52:59;100619.44;;;21.95
75428;BMP280;64008;55.612;37.698;2023-04-19T04:55:25;100613.53;;;21.93
75428;BMP280;64008;55.612;37.698;2023-04-19T04:57:50;100618.28;;;22.01
75428;BMP280;64008;55.612;37.698;2023-04-19T05:00:16;100621.66;;;21.58
75428;BMP280;64008;55.612;37.698;2023-04-19T05:02:41;100628.66;;;20.81
75428;BMP280;64008;55.612;37.698;2023-04-19T05:05:07;100625.16;;;19.03
75428;BMP280;64008;55.612;37.698;2023-04-19T05:07:35;100621.16;;;19.20
75428;BMP280;64008;55.612;37.698;2023-04-19T05:10:01;100633.16;;;18.87
75428;BMP280;64008;55.612;37.698;2023-04-19T05:12:26;100629.94;;;18.32
75428;BMP280;64008;55.612;37.698;2023-04-19T05:14:52;100631.91;;;19.77
75428;BMP280;64008;55.612;37.698;2023-04-19T05:17:17;100634.84;;;19.29
75428;BMP280;64008;55.612;37.698;2023-04-19T05:19:43;100640.47;;;19.38
75428;BMP280;64008;55.612;37.698;2023-04-19T05:22:08;100638.66;;;18.60
75428;BMP280;64008;55.612;37.698;2023-04-19T05:24:35;100637.75;;;19.07
75428;BMP280;64008;55.612;37.698;2023-04-19T05:27:00;100649.56;;;19.21
75428;BMP280;64008;55.612;37.698;2023-04-19T05:29:26;100640.22;;;19.50
75428;BMP280;64008;55.612;37.698;2023-04-19T05:31:52;100645.00;;;19.12
75428;BMP280;64008;55.612;37.698;2023-04-19T05:34:17;100644.25;;;19.37
75428;BMP280;64008;55.612;37.698;2023-04-19T05:36:43;100649.75;;;20.53
75428;BMP280;64008;55.612;37.698;2023-04-19T05:39:08;100645.59;;;19.60
75428;BMP280;64008;55.612;37.698;2023-04-19T05:41:34;100652.03;;;19.38
75428;BMP280;64008;55.612;37.698;2023-04-19T05:43:59;100647.91;;;20.38
75428;BMP280;64008;55.612;37.698;2023-04-19T05:46:25;100647.75;;;19.83
75428;BMP280;64008;55.612;37.698;2023-04-19T05:48:51;100651.94;;;20.36
75428;BMP280;64008;55.612;37.698;2023-04-19T05:51:16;100651.44;;;21.67
75428;BMP280;64008;55.612;37.698;2023-04-19T05:53:44;100651.50;;;20.83
75428;BMP280;64008;55.612;37.698;2023-04-19T05:56:09;100656.50;;;20.25
75428;BMP280;64008;55.612;37.698;2023-04-19T05:58:35;100650.16;;;20.75
75428;BMP280;64008;55.612;37.698;2023-04-19T06:01:01;100649.91;;;20.77
75428;BMP280;64008;55.612;37.698;2023-04-19T06:03:27;100649.03;;;21.31
75428;BMP280;64008;55.612;37.698;2023-04-19T06:05:52;100652.47;;;21.42
75428;BMP280;64008;55.612;37.698;2023-04-19T06:08:18;100663.94;;;21.82
75428;BMP280;64008;55.612;37.698;2023-04-19T06:10:44;100657.88;;;22.19
75428;BMP280;64008;55.612;37.698;2023-04-19T06:13:12;100653.13;;;20.79
75428;BMP280;64008;55.612;37.698;2023-04-19T06:15:38;100653.56;;;22.23
75428;BMP280;64008;55.612;37.698;2023-04-19T06:18:04;100659.69;;;22.72
75428;BMP280;64008;55.612;37.698;2023-04-19T06:20:35;100666.91;;;22.10
75428;BMP280;64008;55.612;37.698;2023-04-19T06:23:01;100656.28;;;22.85
75428;BMP280;64008;55.612;37.698;2023-04-19T06:25:26;100650.59;;;22.68
75428;BMP280;64008;55.612;37.698;2023-04-19T06:27:52;100666.97;;;20.96
75428;BMP280;64008;55.612;37.698;2023-04-19T06:30:17;100663.47;;;21.01
75428;BMP280;64008;55.612;37.698;2023-04-19T06:32:43;100667.16;;;20.56
75428;BMP280;64008;55.612;37.698;2023-04-19T06:35:10;100664.66;;;21.93
75428;BMP280;64008;55.612;37.698;2023-04-19T06:37:35;100658.75;;;23.20
75428;BMP280;64008;55.612;37.698;2023-04-19T06:40:01;100672.81;;;22.12
75428;BMP280;64008;55.612;37.698;2023-04-19T06:42:27;100664.09;;;22.20
75428;BMP280;64008;55.612;37.698;2023-04-19T06:44:53;100659.34;;;23.49
75428;BMP280;64008;55.612;37.698;2023-04-19T06:47:21;100657.44;;;22.60
75428;BMP280;64008;55.612;37.698;2023-04-19T06:49:46;100664.16;;;21.56
75428;BMP280;64008;55.612;37.698;2023-04-19T06:52:12;100656.81;;;22.44
75428;BMP280;64008;55.612;37.698;2023-04-19T06:54:37;100653.19;;;23.11
75428;BMP280;64008;55.612;37.698;2023-04-19T06:57:03;100645.56;;;22.61
75428;BMP280;64008;55.612;37.698;2023-04-19T06:59:28;100652.41;;;22.72
75428;BMP280;64008;55.612;37.698;2023-04-19T07:01:56;100656.00;;;22.44
75428;BMP280;64008;55.612;37.698;2023-04-19T07:04:24;100662.78;;;21.25
75428;BMP280;64008;55.612;37.698;2023-04-19T07:06:49;100651.75;;;20.82
75428;BMP280;64008;55.612;37.698;2023-04-19T07:09:15;100655.09;;;21.81
75428;BMP280;64008;55.612;37.698;2023-04-19T07:11:40;100640.28;;;23.27
75428;BMP280;64008;55.612;37.698;2023-04-19T07:14:06;100656.13;;;23.47
75428;BMP280;64008;55.612;37.698;2023-04-19T07:16:31;100641.19;;;23.36
75428;BMP280;64008;55.612;37.698;2023-04-19T07:18:57;100632.50;;;23.72
75428;BMP280;64008;55.612;37.698;2023-04-19T07:21:23;100643.25;;;22.73
75428;BMP280;64008;55.612;37.698;2023-04-19T07:23:54;100645.03;;;23.16
75428;BMP280;64008;55.612;37.698;2023-04-19T07:26:20;100650.19;;;21.83
75428;BMP280;64008;55.612;37.698;2023-04-19T07:28:45;100642.72;;;22.28
75428;BMP280;64008;55.612;37.698;2023-04-19T07:31:15;100657.66;;;21.92
75428;BMP280;64008;55.612;37.698;2023-04-19T07:33:41;100645.00;;;21.92
75428;BMP280;64008;55.612;37.698;2023-04-19T07:36:07;100643.53;;;23.10
75428;BMP280;64008;55.612;37.698;2023-04-19T07:38:33;100638.31;;;23.46
75428;BMP280;64008;55.612;37.698;2023-04-19T07:40:58;100646.72;;;23.45
75428;BMP280;64008;55.612;37.698;2023-04-19T07:43:24;100648.97;;;23.56
75428;BMP280;64008;55.612;37.698;2023-04-19T07:45:51;100647.75;;;22.97
75428;BMP280;64008;55.612;37.698;2023-04-19T07:48:17;100646.41;;;23.46
75428;BMP280;64008;55.612;37.698;2023-04-19T07:50:42;100650.00;;;22.52
75428;BMP280;64008;55.612;37.698;2023-04-19T07:53:08;100640.72;;;23.48
75428;BMP280;64008;55.612;37.698;2023-04-19T07:55:33;100646.78;;;22.50
75428;BMP280;64008;55.612;37.698;2023-04-19T07:58:00;100656.47;;;22.03
75428;BMP280;64008;55.612;37.698;2023-04-19T08:00:25;100648.81;;;22.58
75428;BMP280;64008;55.612;37.698;2023-04-19T08:02:51;100641.78;;;24.07
75428;BMP280;64008;55.612;37.698;2023-04-19T08:05:17;100645.09;;;24.18
75428;BMP280;64008;55.612;37.698;2023-04-19T08:07:43;100651.44;;;23.20
75428;BMP280;64008;55.612;37.698;2023-04-19T08:10:09;100643.78;;;23.74
75428;BMP280;64008;55.612;37.698;2023-04-19T08:12:35;100641.69;;;24.12
75428;BMP280;64008;55.612;37.698;2023-04-19T08:15:05;100640.66;;;23.67
75428;BMP280;64008;55.612;37.698;2023-04-19T08:17:31;100641.41;;;23.86
75428;BMP280;64008;55.612;37.698;2023-04-19T08:19:57;100649.97;;;24.02
75428;BMP280;64008;55.612;37.698;2023-04-19T08:22:23;100645.72;;;23.40
75428;BMP280;64008;55.612;37.698;2023-04-19T08:24:49;100642.03;;;23.17
75428;BMP280;64008;55.612;37.698;2023-04-19T08:27:16;100635.91;;;24.05
75428;BMP280;64008;55.612;37.698;2023-04-19T08:29:42;100637.88;;;23.06
75428;BMP280;64008;55.612;37.698;2023-04-19T08:32:08;100632.78;;;23.70
75428;BMP280;64008;55.612;37.698;2023-04-19T08:34:34;100629.63;;;23.82
75428;BMP280;64008;55.612;37.698;2023-04-19T08:37:00;100637.50;;;24.20
75428;BMP280;64008;55.612;37.698;2023-04-19T08:39:27;100633.19;;;23.63
75428;BMP280;64008;55.612;37.698;2023-04-19T08:41:54;100627.22;;;23.94
75428;BMP280;64008;55.612;37.698;2023-04-19T08:44:21;100624.97;;;24.60
75428;BMP280;64008;55.612;37.698;2023-04-19T08:46:47;100630.59;;;24.00
75428;BMP280;64008;55.612;37.698;2023-04-19T08:49:15;100628.41;;;24.88
75428;BMP280;64008;55.612;37.698;2023-04-19T08:51:41;100633.34;;;25.09
75428;BMP280;64008;55.612;37.698;2023-04-19T08:54:08;100623.22;;;25.00
75428;BMP280;64008;55.612;37.698;2023-04-19T08:56:35;100623.44;;;25.04
75428;BMP280;64008;55.612;37.698;2023-04-19T08:59:01;100625.13;;;25.22
75428;BMP280;64008;55.612;37.698;2023-04-19T09:01:26;100632.50;;;24.86
75428;BMP280;64008;55.612;37.698;2023-04-19T09:03:52;100632.72;;;24.53
75428;BMP280;64008;55.612;37.698;2023-04-19T09:06:17;100622.94;;;23.47
75428;BMP280;64008;55.612;37.698;2023-04-19T09:08:43;100623.28;;;23.73
75428;BMP280;64008;55.612;37.698;2023-04-19T09:11:08;100626.25;;;24.40
75428;BMP280;64008;55.612;37.698;2023-04-19T09:13:34;100619.38;;;25.15
75428;BMP280;64008;55.612;37.698;2023-04-19T09:16:05;100621.22;;;24.47
75428;BMP280;64008;55.612;37.698;2023-04-19T09:18:32;100611.81;;;25.35
75428;BMP280;64008;55.612;37.698;2023-04-19T09:20:57;100603.16;;;25.24
75428;BMP280;64008;55.612;37.698;2023-04-19T09:23:25;100603.03;;;25.69
75428;BMP280;64008;55.612;37.698;2023-04-19T09:25:59;100619.28;;;25.69
75428;BMP280;64008;55.612;37.698;2023-04-19T09:28:26;100614.03;;;25.64
75428;BMP280;64008;55.612;37.698;2023-04-19T09:30:53;100613.66;;;26.14
75428;BMP280;64008;55.612;37.698;2023-04-19T09:33:36;100608.81;;;25.76
75428;BMP280;64008;55.612;37.698;2023-04-19T09:36:04;100602.97;;;25.52
75428;BMP280;64008;55.612;37.698;2023-04-19T09:38:45;100602.88;;;26.49
75428;BMP280;64008;55.612;37.698;2023-04-19T09:41:10;100598.69;;;26.17
75428;BMP280;64008;55.612;37.698;2023-04-19T09:43:36;100600.13;;;25.17
75428;BMP280;64008;55.612;37.698;2023-04-19T09:46:02;100604.81;;;24.80
75428;BMP280;64008;55.612;37.698;2023-04-19T09:48:27;100601.88;;;26.10
75428;BMP280;64008;55.612;37.698;2023-04-19T09:50:58;100605.59;;;25.65
75428;BMP280;64008;55.612;37.698;2023-04-19T09:53:25;100601.16;;;25.30
75428;BMP280;64008;55.612;37.698;2023-04-19T09:55:51;100600.72;;;25.85
75428;BMP280;64008;55.612;37.698;2023-04-19T09:58:17;100601.09;;;26.18
75428;BMP280;64008;55.612;37.698;2023-04-19T10:00:43;100593.91;;;26.40
75428;BMP280;64008;55.612;37.698;2023-04-19T10:03:12;100601.69;;;25.89
75428;BMP280;64008;55.612;37.698;2023-04-19T10:05:39;100589.28;;;26.40
75428;BMP280;64008;55.612;37.698;2023-04-19T10:08:10;100591.31;;;25.11
75428;BMP280;64008;55.612;37.698;2023-04-19T10:10:37;100594.84;;;26.09
75428;BMP280;64008;55.612;37.698;2023-04-19T10:13:06;100579.31;;;26.96
75428;BMP280;64008;55.612;37.698;2023-04-19T10:15:34;100590.50;;;26.86
75428;BMP280;64008;55.612;37.698;2023-04-19T10:18:01;100581.22;;;27.04
75428;BMP280;64008;55.612;37.698;2023-04-19T10:20:38;100586.56;;;26.40
75428;BMP280;64008;55.612;37.698;2023-04-19T10:23:06;100580.28;;;25.30
75428;BMP280;64008;55.612;37.698;2023-04-19T10:25:36;100578.16;;;24.87
75428;BMP280;64008;55.612;37.698;2023-04-19T10:28:02;100578.91;;;25.81
75428;BMP280;64008;55.612;37.698;2023-04-19T10:30:28;100563.88;;;26.88
75428;BMP280;64008;55.612;37.698;2023-04-19T10:32:58;100570.75;;;26.59
75428;BMP280;64008;55.612;37.698;2023-04-19T10:35:26;100572.44;;;25.60
75428;BMP280;64008;55.612;37.698;2023-04-19T10:38:12;100567.28;;;26.33
75428;BMP280;64008;55.612;37.698;2023-04-19T10:40:57;100559.59;;;26.70
75428;BMP280;64008;55.612;37.698;2023-04-19T10:43:32;100559.66;;;27.08
75428;BMP280;64008;55.612;37.698;2023-04-19T10:46:36;100565.72;;;26.58
75428;BMP280;64008;55.612;37.698;2023-04-19T10:49:04;100559.81;;;26.38
75428;BMP280;64008;55.612;37.698;2023-04-19T10:51:39;100560.09;;;26.46
75428;BMP280;64008;55.612;37.698;2023-04-19T10:54:08;100559.28;;;26.63
75428;BMP280;64008;55.612;37.698;2023-04-19T11:01:42;100543.50;;;27.12
75428;BMP280;64008;55.612;37.698;2023-04-19T11:06:59;100537.47;;;27.06
75428;BMP280;64008;55.612;37.698;2023-04-19T11:09:26;100543.66;;;27.15
75428;BMP280;64008;55.612;37.698;2023-04-19T11:11:53;100537.19;;;27.28
75428;BMP280;64008;55.612;37.698;2023-04-19T11:14:22;100538.47;;;27.82
75428;BMP280;64008;55.612;37.698;2023-04-19T11:16:48;100537.22;;;28.00
75428;BMP280;64008;55.612;37.698;2023-04-19T11:19:18;100531.25;;;27.86
75428;BMP280;64008;55.612;37.698;2023-04-19T11:21:44;100529.00;;;27.88
75428;BMP280;64008;55.612;37.698;2023-04-19T11:24:10;100532.00;;;27.74
75428;BMP280;64008;55.612;37.698;2023-04-19T11:26:36;100525.13;;;27.17
75428;BMP280;64008;55.612;37.698;2023-04-19T11:29:02;100531.22;;;26.67
75428;BMP280;64008;55.612;37.698;2023-04-19T11:31:27;100530.16;;;27.57
75428;BMP280;64008;55.612;37.698;2023-04-19T11:33:53;100528.75;;;27.30
75428;BMP280;64008;55.612;37.698;2023-04-19T11:36:19;100519.91;;;27.42
75428;BMP280;64008;55.612;37.698;2023-04-19T11:38:48;100515.16;;;27.60
75428;BMP280;64008;55.612;37.698;2023-04-19T11:41:14;100521.13;;;27.53
75428;BMP280;64008;55.612;37.698;2023-04-19T11:43:40;100519.81;;;27.80
75428;BMP280;64008;55.612;37.698;2023-04-19T11:46:09;100506.69;;;28.03
75428;BMP280;64008;55.612;37.698;2023-04-19T11:48:36;100514.19;;;26.58
75428;BMP280;64008;55.612;37.698;2023-04-19T11:51:02;100512.22;;;26.67
75428;BMP280;64008;55.612;37.698;2023-04-19T11:53:30;100516.63;;;26.07
75428;BMP280;64008;55.612;37.698;2023-04-19T11:56:03;100512.84;;;26.73
75428;BMP280;64008;55.612;37.698;2023-04-19T11:58:32;100504.03;;;27.23
75428;BMP280;64008;55.612;37.698;2023-04-19T12:01:19;100506.63;;;27.19
75428;BMP280;64008;55.612;37.698;2023-04-19T12:03:50;100514.09;;;26.75
75428;BMP280;64008;55.612;37.698;2023-04-19T12:06:18;100506.81;;;26.67
75428;BMP280;64008;55.612;37.698;2023-04-19T12:08:48;100503.00;;;26.68
75428;BMP280;64008;55.612;37.698;2023-04-19T12:11:14;100499.44;;;26.76
75428;BMP280;64008;55.612;37.698;2023-04-19T12:13:40;100502.09;;;26.94
75428;BMP280;64008;55.612;37.698;2023-04-19T12:16:06;100503.56;;;26.82
75428;BMP280;64008;55.612;37.698;2023-04-19T12:18:46;100506.91;;;26.88
75428;BMP280;64008;55.612;37.698;2023-04-19T12:21:28;100504.22;;;26.79
75428;BMP280;64008;55.612;37.698;2023-04-19T12:23:56;100503.84;;;26.90
75428;BMP280;64008;55.612;37.698;2023-04-19T12:26:22;100500.63;;;26.96
75428;BMP280;64008;55.612;37.698;2023-04-19T12:28:48;100500.16;;;27.03
75428;BMP280;64008;55.612;37.698;2023-04-19T12:31:13;100496.84;;;26.89
75428;BMP280;64008;55.612;37.698;2023-04-19T12:33:40;100493.97;;;27.23
75428;BMP280;64008;55.612;37.698;2023-04-19T12:36:06;100491.91;;;26.82
75428;BMP280;64008;55.612;37.698;2023-04-19T12:38:32;100491.91;;;26.91
75428;BMP280;64008;55.612;37.698;2023-04-19T12:40:57;100491.19;;;27.11
75428;BMP280;64008;55.612;37.698;2023-04-19T12:43:23;100493.97;;;27.23
75428;BMP280;64008;55.612;37.698;2023-04-19T12:45:48;100473.53;;;27.26
75428;BMP280;64008;55.612;37.698;2023-04-19T12:48:14;100483.44;;;27.22
75428;BMP280;64008;55.612;37.698;2023-04-19T12:50:39;100474.38;;;27.18
75428;BMP280;64008;55.612;37.698;2023-04-19T12:53:05;100480.88;;;27.25
75428;BMP280;64008;55.612;37.698;2023-04-19T12:55:31;100479.94;;;27.21
75428;BMP280;64008;55.612;37.698;2023-04-19T12:57:56;100477.31;;;27.04
75428;BMP280;64008;55.612;37.698;2023-04-19T13:00:22;100479.09;;;27.00
75428;BMP280;64008;55.612;37.698;2023-04-19T13:02:48;100461.28;;;26.90
75428;BMP280;64008;55.612;37.698;2023-04-19T13:05:14;100472.78;;;26.87
75428;BMP280;64008;55.612;37.698;2023-04-19T13:07:40;100475.34;;;27.13
75428;BMP280;64008;55.612;37.698;2023-04-19T13:10:07;100476.25;;;27.26
75428;BMP280;64008;55.612;37.698;2023-04-19T13:12:33;100469.72;;;27.48
75428;BMP280;64008;55.612;37.698;2023-04-19T13:14:59;100477.44;;;27.37
75428;BMP280;64008;55.612;37.698;2023-04-19T13:17:25;100483.47;;;27.43
75428;BMP280;64008;55.612;37.698;2023-04-19T13:19:51;100481.69;;;27.26
75428;BMP280;64008;55.612;37.698;2023-04-19T13:22:16;100470.69;;;27.22
75428;BMP280;64008;55.612;37.698;2023-04-19T13:24:42;100468.41;;;27.24
75428;BMP280;64008;55.612;37.698;2023-04-19T13:27:07;100481.59;;;27.14
75428;BMP280;64008;55.612;37.698;2023-04-19T13:29:33;100472.66;;;27.34
75428;BMP280;64008;55.612;37.698;2023-04-19T13:31:58;100471.63;;;27.26
75428;BMP280;64008;55.612;37.698;2023-04-19T13:34:25;100470.50;;;27.27
75428;BMP280;64008;55.612;37.698;2023-04-19T13:36:50;100472.22;;;27.32
75428;BMP280;64008;55.612;37.698;2023-04-19T13:39:16;100471.69;;;27.39
75428;BMP280;64008;55.612;37.698;2023-04-19T13:41:41;100461.28;;;27.83
75428;BMP280;64008;55.612;37.698;2023-04-19T13:44:07;100463.63;;;28.05
75428;BMP280;64008;55.612;37.698;2023-04-19T13:46:33;100458.56;;;28.04
75428;BMP280;64008;55.612;37.698;2023-04-19T13:48:58;100468.22;;;27.92